Irini — SYZA — position and weather

sailwx.info

Track history (hours):
 
Tides and Currents Weather Stations Pressure Air Temp Water Temp Dewpoint Dewpoint Depression Visibility Wind Speed Wind Dir Waves Ship Positions

Irini

Last reported at 2015-May-28 18:33 UTC. Time now 2015-May-28 20:10 UTC.
Position N 37°52' E 024°30'.

Length 137 m; draft 6 m.

Type: Ship (hazmat cat A). MMSI: 240052000.

Date/timePositionNaut miles runAvg speedWind from/ knotsBaromVisibWave heightAir tempDewpointWater temp
2015-May-28 18:33N 37°52' E 024°30'2511.2
2015-May-28 16:22N 37°36' E 024°07'911.5
2015-May-28 15:33N 37°36' E 023°55'1212.1
2015-May-28 14:33N 37°41' E 023°42'1212.3
2015-May-28 13:33N 37°53' E 023°36'8 7.9
2015-May-28 12:30N 38°01' E 023°35'0 0.0
2015-May-26 15:09N 38°01' E 023°36'3 4.7
2015-May-26 14:33N 37°60' E 023°33'9 8.8
2015-May-26 13:33N 37°52' E 023°38'1211.7
2015-May-26 12:34N 37°41' E 023°45'1411.2
2015-May-26 11:21N 37°37' E 024°01'1410.9
2015-May-26 10:06N 37°44' E 024°16'3710.0
2015-May-26 06:26N 38°18' E 024°32'1012.1
2015-May-26 05:33N 38°27' E 024°26'  
2015-May-22 18:29N 37°53' E 024°32'1511.8
2015-May-22 17:13N 37°44' E 024°18'1012.2
2015-May-22 16:26N 37°37' E 024°09'1011.6
2015-May-22 15:33N 37°36' E 023°56'1211.8
2015-May-22 14:33N 37°41' E 023°42'1212.2
2015-May-22 13:34N 37°52' E 023°37'9 8.9
2015-May-22 12:34N 38°00' E 023°33'3 0.1
2015-May-21 13:33N 37°57' E 023°34'9 9.1
2015-May-21 12:33N 37°50' E 023°40'1211.5
2015-May-21 11:33N 37°40' E 023°47'2310.3
2015-May-21 09:16N 37°44' E 024°17'  
Track history (hours):
 
Tides and Currents Weather Stations Pressure Air Temp Water Temp Dewpoint Dewpoint Depression Visibility Wind Speed Wind Dir Waves Ship Positions

Irini

Last reported at 2015-May-28 18:33 UTC. Time now 2015-May-28 20:10 UTC.
Position N 37°52' E 024°30'.

Length 137 m; draft 6 m.

Type: Ship (hazmat cat A). MMSI: 240052000.

Date/timePositionNaut miles runAvg speedWind from/ knotsBaromVisibWave heightAir tempDewpointWater temp
2015-May-28 18:33N 37°52' E 024°30'2511.2
2015-May-28 16:22N 37°36' E 024°07'911.5
2015-May-28 15:33N 37°36' E 023°55'1212.1
2015-May-28 14:33N 37°41' E 023°42'1212.3
2015-May-28 13:33N 37°53' E 023°36'8 7.9
2015-May-28 12:30N 38°01' E 023°35'0 0.0
2015-May-26 15:09N 38°01' E 023°36'3 4.7
2015-May-26 14:33N 37°60' E 023°33'9 8.8
2015-May-26 13:33N 37°52' E 023°38'1211.7
2015-May-26 12:34N 37°41' E 023°45'1411.2
2015-May-26 11:21N 37°37' E 024°01'1410.9
2015-May-26 10:06N 37°44' E 024°16'3710.0
2015-May-26 06:26N 38°18' E 024°32'1012.1
2015-May-26 05:33N 38°27' E 024°26'  
2015-May-22 18:29N 37°53' E 024°32'1511.8
2015-May-22 17:13N 37°44' E 024°18'1012.2
2015-May-22 16:26N 37°37' E 024°09'1011.6
2015-May-22 15:33N 37°36' E 023°56'1211.8
2015-May-22 14:33N 37°41' E 023°42'1212.2
2015-May-22 13:34N 37°52' E 023°37'9 8.9
2015-May-22 12:34N 38°00' E 023°33'3 0.1
2015-May-21 13:33N 37°57' E 023°34'9 9.1
2015-May-21 12:33N 37°50' E 023°40'1211.5
2015-May-21 11:33N 37°40' E 023°47'2310.3
2015-May-21 09:16N 37°44' E 024°17'  

Dump ship's entire track history